Pieter Caland — PBTB — position and weather

sailwx.info

Track history (hours):
 
Tides and Currents Weather Stations Pressure Air Temp Water Temp Dewpoint Dewpoint Depression Visibility Wind Speed Wind Dir Waves Ship Positions

Pieter Caland

Last reported at 2017-Feb-22 08:28 UTC. Time now 2017-Feb-23 16:08 UTC.
Position S 23°03' W 042°53'.

Length 96 m; draft 5.1 m.

Type: Other ship. MMSI: 244992000.

Date/timePositionNaut miles runAvg speedWind from/ knotsBaromVisibWave heightAir tempDewpointWater temp
2017-Feb-22 08:28S 23°03' W 042°53'9 9.0
2017-Feb-22 07:30S 23°01' W 043°02'9 8.5
2017-Feb-22 06:28S 22°55' W 043°09'3 1.4
2017-Feb-22 04:28S 22°53' W 043°11'0 0.0
2017-Feb-22 00:22S 22°53' W 043°11'0 0.0
2017-Feb-21 23:10S 22°53' W 043°11'0 0.0
2017-Feb-21 22:28S 22°53' W 043°11'0 0.0
2017-Feb-21 19:22S 22°53' W 043°11'0 0.0
2017-Feb-21 18:28S 22°53' W 043°11'0 0.1
2017-Feb-21 17:28S 22°53' W 043°11'0 0.0
2017-Feb-21 13:16S 22°53' W 043°11'0 0.0
2017-Feb-21 12:04S 22°53' W 043°11'0 0.0
2017-Feb-21 10:28S 22°53' W 043°11'0 0.0
2017-Feb-21 09:22S 22°53' W 043°11'0 0.0
2017-Feb-21 07:22S 22°53' W 043°11'0 0.0
2017-Feb-21 06:16S 22°53' W 043°11'0 0.0
2017-Feb-21 04:28S 22°53' W 043°11'0 0.0
2017-Feb-21 03:28S 22°53' W 043°11'0 0.1
2017-Feb-21 02:22S 22°53' W 043°11'0 0.0
2017-Feb-21 01:16S 22°53' W 043°11'0 0.0
2017-Feb-21 00:28S 22°53' W 043°11'0 0.0
2017-Feb-20 22:28S 22°53' W 043°11'0 0.0
2017-Feb-20 21:28S 22°53' W 043°11'0 0.0
2017-Feb-20 20:28S 22°53' W 043°11'0 0.0
2017-Feb-20 19:22S 22°53' W 043°11'0 0.0
2017-Feb-20 18:16S 22°53' W 043°11'0 0.0
2017-Feb-20 17:22S 22°53' W 043°11'0 0.0
2017-Feb-20 16:16S 22°53' W 043°11'0 0.0
2017-Feb-20 15:28S 22°53' W 043°11'0 0.0
2017-Feb-20 14:28S 22°53' W 043°11'0 0.0
2017-Feb-20 08:10S 22°53' W 043°11'0 0.0
2017-Feb-20 07:10S 22°53' W 043°11'0 0.0
2017-Feb-20 05:28S 22°53' W 043°11'0 0.0
2017-Feb-20 04:22S 22°53' W 043°11'0 0.0
2017-Feb-20 02:28S 22°53' W 043°11'0 0.1
2017-Feb-20 01:16S 22°53' W 043°11'0 0.0
2017-Feb-19 23:28S 22°53' W 043°11'0 0.0
2017-Feb-19 20:04S 22°53' W 043°11'0 0.0
2017-Feb-19 19:28S 22°53' W 043°11'0 0.0
2017-Feb-19 18:28S 22°53' W 043°11'0 0.0
2017-Feb-19 14:16S 22°53' W 043°11'0 0.0
2017-Feb-19 13:16S 22°53' W 043°11'0 0.0
2017-Feb-19 12:28S 22°53' W 043°11'0 0.0
2017-Feb-18 04:30S 22°53' W 043°11'0 0.0
2017-Feb-18 01:29S 22°53' W 043°11'0 0.1
2017-Feb-18 00:33S 22°53' W 043°11'0 0.0
2017-Feb-17 23:29S 22°53' W 043°11'1 0.6
2017-Feb-17 21:08S 22°54' W 043°10'6 9.1
2017-Feb-17 20:30S 22°59' W 043°07'2 0.7
2017-Feb-17 17:32S 22°57' W 043°08'6 4.9
2017-Feb-17 16:22S 22°53' W 043°12'0 0.0
2017-Feb-17 15:28S 22°53' W 043°12'0 0.0
2017-Feb-17 14:20S 22°53' W 043°12'0 0.0
2017-Feb-17 13:12S 22°53' W 043°12'0 0.0
2017-Feb-17 12:21S 22°53' W 043°12'0 0.0
2017-Feb-17 10:15S 22°53' W 043°12'0 0.0
2017-Feb-17 09:25S 22°53' W 043°12'0 0.1
2017-Feb-17 08:16S 22°53' W 043°12'0 0.2
2017-Feb-17 07:21S 22°53' W 043°12'0 0.0
2017-Feb-17 06:19S 22°53' W 043°12'0 0.0
2017-Feb-17 05:25S 22°53' W 043°12'0 0.0
2017-Feb-17 04:31S 22°53' W 043°12'0 0.0
2017-Feb-17 03:31S 22°53' W 043°12'0 0.0
2017-Feb-17 02:31S 22°53' W 043°12'0 0.0
2017-Feb-17 01:31S 22°53' W 043°12'0 0.0
2017-Feb-17 00:25S 22°53' W 043°13'0 0.0
2017-Feb-16 23:31S 22°53' W 043°13'0 0.0
2017-Feb-16 22:31S 22°53' W 043°13'1 1.2
2017-Feb-16 21:33S 22°53' W 043°11'0 0.3
2017-Feb-16 20:29S 22°53' W 043°11'0 0.0
2017-Feb-16 19:23S 22°53' W 043°11'0 0.0
2017-Feb-16 18:29S 22°53' W 043°11'0 0.0
2017-Feb-16 17:29S 22°53' W 043°11'0 0.0
2017-Feb-16 16:29S 22°53' W 043°11'0 0.0
2017-Feb-16 15:29S 22°53' W 043°11'0 0.0
2017-Feb-16 14:29S 22°53' W 043°11'0 0.0
2017-Feb-16 13:29S 22°53' W 043°11'0 0.1
2017-Feb-16 12:11S 22°53' W 043°11'0 0.0
2017-Feb-16 11:29S 22°53' W 043°11'0 0.0
2017-Feb-16 10:29S 22°53' W 043°11'0 0.0
2017-Feb-16 09:29S 22°53' W 043°11'0 0.1
2017-Feb-16 08:29S 22°53' W 043°11'0 0.1
2017-Feb-16 07:32S 22°53' W 043°11'0 0.0
2017-Feb-16 06:20S 22°53' W 043°11'0 0.0
2017-Feb-16 05:32S 22°53' W 043°11'0 0.0
2017-Feb-16 04:26S 22°53' W 043°11'0 0.0
2017-Feb-16 03:32S 22°53' W 043°11'0 0.0
2017-Feb-16 02:26S 22°53' W 043°11'0 0.0
2017-Feb-16 01:26S 22°53' W 043°11'0 0.0
2017-Feb-16 00:32S 22°53' W 043°11'0 0.1
2017-Feb-15 23:32S 22°53' W 043°11'0 0.1
2017-Feb-15 22:32S 22°53' W 043°11'0 0.1
2017-Feb-15 21:20S 22°53' W 043°11'0 0.0
2017-Feb-15 20:32S 22°53' W 043°11'0 0.0
2017-Feb-15 19:32S 22°53' W 043°11'0 0.0
2017-Feb-15 18:20S 22°53' W 043°11'0 0.0
2017-Feb-15 17:32S 22°53' W 043°11'0 0.0
2017-Feb-15 16:26S 22°53' W 043°11'0 0.0
2017-Feb-15 15:32S 22°53' W 043°11'0 0.1
2017-Feb-15 14:32S 22°53' W 043°11'0 0.0
2017-Feb-15 13:32S 22°53' W 043°11'0 0.1
2017-Feb-15 12:32S 22°53' W 043°11'0 0.0
2017-Feb-15 11:32S 22°53' W 043°11'0 0.0
2017-Feb-15 10:32S 22°53' W 043°11'0 0.0
2017-Feb-15 09:32S 22°53' W 043°11'3 3.5
2017-Feb-15 08:33S 22°56' W 043°09'9 8.9
2017-Feb-15 07:33S 23°04' W 043°05'0 0.3
2017-Feb-15 06:33S 23°04' W 043°05'8 7.9
2017-Feb-15 05:33S 22°57' W 043°08'6 5.8
2017-Feb-15 04:33S 22°53' W 043°12'0 0.0
2017-Feb-15 03:33S 22°53' W 043°12'0 0.0
2017-Feb-15 02:33S 22°53' W 043°12'0 0.0
2017-Feb-15 01:33S 22°53' W 043°12'0 0.0
2017-Feb-15 00:33S 22°53' W 043°12'0 0.0
2017-Feb-14 23:33S 22°53' W 043°12'0 0.0
2017-Feb-14 22:33S 22°53' W 043°12'0 0.0
2017-Feb-14 21:33S 22°53' W 043°12'0 0.0
2017-Feb-14 20:33S 22°53' W 043°12'0 0.0
2017-Feb-14 19:33S 22°53' W 043°12'0 0.2
2017-Feb-14 18:10S 22°53' W 043°13'0 0.0
2017-Feb-14 17:33S 22°53' W 043°13'0 0.3
2017-Feb-14 16:33S 22°53' W 043°12'0 0.0
2017-Feb-14 15:33S 22°53' W 043°12'1 1.3
2017-Feb-14 14:32S 22°53' W 043°11'0 0.0
2017-Feb-14 13:32S 22°53' W 043°11'0 0.1
2017-Feb-14 12:32S 22°53' W 043°11'0 0.0
2017-Feb-14 11:32S 22°53' W 043°11'0 0.0
2017-Feb-14 10:32S 22°53' W 043°11'0 0.0
2017-Feb-14 09:20S 22°53' W 043°11'0 0.0
2017-Feb-14 08:33S 22°53' W 043°11'0 0.1
2017-Feb-14 07:33S 22°53' W 043°11'0 0.0
2017-Feb-14 06:33S 22°53' W 043°11'0 0.0
2017-Feb-14 05:33S 22°53' W 043°11'0 0.0
2017-Feb-14 04:33S 22°53' W 043°11'0 0.0
2017-Feb-14 03:33S 22°53' W 043°11'0 0.0
2017-Feb-14 02:33S 22°53' W 043°11'0 0.0
2017-Feb-14 01:33S 22°53' W 043°11'0 0.0
2017-Feb-14 00:33S 22°53' W 043°11'0 0.0
2017-Feb-13 23:33S 22°53' W 043°11'0 0.0
2017-Feb-13 22:33S 22°53' W 043°11'0 0.0
2017-Feb-13 21:33S 22°53' W 043°11'0 0.1
2017-Feb-13 20:33S 22°53' W 043°11'0 0.0
2017-Feb-13 19:33S 22°53' W 043°11'0 0.0
2017-Feb-13 18:33S 22°53' W 043°11'0 0.0
2017-Feb-13 17:29S 22°53' W 043°11'0 0.1
2017-Feb-13 16:33S 22°53' W 043°11'7 7.2
2017-Feb-13 15:33S 22°59' W 043°07'8 7.8
2017-Feb-13 14:33S 23°07' W 043°04'8 7.6
2017-Feb-13 13:33S 22°60' W 043°07'8 7.8
2017-Feb-13 12:33S 22°53' W 043°11'1 0.8
2017-Feb-13 11:33S 22°53' W 043°12'0 0.3
2017-Feb-13 10:33S 22°53' W 043°12'0 0.0
2017-Feb-13 09:33S 22°53' W 043°12'0 0.0
2017-Feb-13 08:33S 22°53' W 043°13'0 0.0
2017-Feb-13 07:33S 22°53' W 043°13'0 0.0
2017-Feb-13 06:33S 22°53' W 043°13'0 0.1
2017-Feb-13 05:33S 22°53' W 043°13'0 0.0
2017-Feb-13 04:33S 22°53' W 043°13'0 0.0
2017-Feb-13 03:33S 22°53' W 043°13'0 0.0
2017-Feb-13 02:33S 22°53' W 043°13'2 1.5
2017-Feb-13 01:33S 22°53' W 043°11'0 0.0
2017-Feb-13 00:33S 22°53' W 043°11'0 0.0
2017-Feb-12 23:33S 22°53' W 043°11'6 5.8
2017-Feb-12 22:33S 22°58' W 043°08'8 8.2
2017-Feb-12 21:33S 23°06' W 043°05'3 3.5
2017-Feb-12 20:33S 23°02' W 043°06'8 8.0
2017-Feb-12 19:33S 22°55' W 043°09'4 3.9
2017-Feb-12 18:33S 22°53' W 043°13'0 0.0
2017-Feb-12 17:32S 22°53' W 043°13'0 0.0
2017-Feb-12 16:33S 22°53' W 043°13'0 0.2
2017-Feb-12 15:33S 22°53' W 043°13'0 0.0
2017-Feb-12 14:33S 22°53' W 043°13'0 0.3
2017-Feb-12 13:33S 22°53' W 043°13'0 0.0
2017-Feb-12 12:33S 22°53' W 043°13'0 0.0
2017-Feb-12 11:33S 22°53' W 043°13'0 0.0
2017-Feb-12 10:33S 22°53' W 043°13'0 0.0
2017-Feb-12 09:33S 22°53' W 043°13'0 0.0
2017-Feb-12 08:33S 22°53' W 043°13'  
Track history (hours):
 
Tides and Currents Weather Stations Pressure Air Temp Water Temp Dewpoint Dewpoint Depression Visibility Wind Speed Wind Dir Waves Ship Positions

Pieter Caland

Last reported at 2017-Feb-22 08:28 UTC. Time now 2017-Feb-23 16:08 UTC.
Position S 23°03' W 042°53'.

Length 96 m; draft 5.1 m.

Type: Other ship. MMSI: 244992000.

Date/timePositionNaut miles runAvg speedWind from/ knotsBaromVisibWave heightAir tempDewpointWater temp
2017-Feb-22 08:28S 23°03' W 042°53'9 9.0
2017-Feb-22 07:30S 23°01' W 043°02'9 8.5
2017-Feb-22 06:28S 22°55' W 043°09'3 1.4
2017-Feb-22 04:28S 22°53' W 043°11'0 0.0
2017-Feb-22 00:22S 22°53' W 043°11'0 0.0
2017-Feb-21 23:10S 22°53' W 043°11'0 0.0
2017-Feb-21 22:28S 22°53' W 043°11'0 0.0
2017-Feb-21 19:22S 22°53' W 043°11'0 0.0
2017-Feb-21 18:28S 22°53' W 043°11'0 0.1
2017-Feb-21 17:28S 22°53' W 043°11'0 0.0
2017-Feb-21 13:16S 22°53' W 043°11'0 0.0
2017-Feb-21 12:04S 22°53' W 043°11'0 0.0
2017-Feb-21 10:28S 22°53' W 043°11'0 0.0
2017-Feb-21 09:22S 22°53' W 043°11'0 0.0
2017-Feb-21 07:22S 22°53' W 043°11'0 0.0
2017-Feb-21 06:16S 22°53' W 043°11'0 0.0
2017-Feb-21 04:28S 22°53' W 043°11'0 0.0
2017-Feb-21 03:28S 22°53' W 043°11'0 0.1
2017-Feb-21 02:22S 22°53' W 043°11'0 0.0
2017-Feb-21 01:16S 22°53' W 043°11'0 0.0
2017-Feb-21 00:28S 22°53' W 043°11'0 0.0
2017-Feb-20 22:28S 22°53' W 043°11'0 0.0
2017-Feb-20 21:28S 22°53' W 043°11'0 0.0
2017-Feb-20 20:28S 22°53' W 043°11'0 0.0
2017-Feb-20 19:22S 22°53' W 043°11'0 0.0
2017-Feb-20 18:16S 22°53' W 043°11'0 0.0
2017-Feb-20 17:22S 22°53' W 043°11'0 0.0
2017-Feb-20 16:16S 22°53' W 043°11'0 0.0
2017-Feb-20 15:28S 22°53' W 043°11'0 0.0
2017-Feb-20 14:28S 22°53' W 043°11'0 0.0
2017-Feb-20 08:10S 22°53' W 043°11'0 0.0
2017-Feb-20 07:10S 22°53' W 043°11'0 0.0
2017-Feb-20 05:28S 22°53' W 043°11'0 0.0
2017-Feb-20 04:22S 22°53' W 043°11'0 0.0
2017-Feb-20 02:28S 22°53' W 043°11'0 0.1
2017-Feb-20 01:16S 22°53' W 043°11'0 0.0
2017-Feb-19 23:28S 22°53' W 043°11'0 0.0
2017-Feb-19 20:04S 22°53' W 043°11'0 0.0
2017-Feb-19 19:28S 22°53' W 043°11'0 0.0
2017-Feb-19 18:28S 22°53' W 043°11'0 0.0
2017-Feb-19 14:16S 22°53' W 043°11'0 0.0
2017-Feb-19 13:16S 22°53' W 043°11'0 0.0
2017-Feb-19 12:28S 22°53' W 043°11'0 0.0
2017-Feb-18 04:30S 22°53' W 043°11'0 0.0
2017-Feb-18 01:29S 22°53' W 043°11'0 0.1
2017-Feb-18 00:33S 22°53' W 043°11'0 0.0
2017-Feb-17 23:29S 22°53' W 043°11'1 0.6
2017-Feb-17 21:08S 22°54' W 043°10'6 9.1
2017-Feb-17 20:30S 22°59' W 043°07'2 0.7
2017-Feb-17 17:32S 22°57' W 043°08'6 4.9
2017-Feb-17 16:22S 22°53' W 043°12'0 0.0
2017-Feb-17 15:28S 22°53' W 043°12'0 0.0
2017-Feb-17 14:20S 22°53' W 043°12'0 0.0
2017-Feb-17 13:12S 22°53' W 043°12'0 0.0
2017-Feb-17 12:21S 22°53' W 043°12'0 0.0
2017-Feb-17 10:15S 22°53' W 043°12'0 0.0
2017-Feb-17 09:25S 22°53' W 043°12'0 0.1
2017-Feb-17 08:16S 22°53' W 043°12'0 0.2
2017-Feb-17 07:21S 22°53' W 043°12'0 0.0
2017-Feb-17 06:19S 22°53' W 043°12'0 0.0
2017-Feb-17 05:25S 22°53' W 043°12'0 0.0
2017-Feb-17 04:31S 22°53' W 043°12'0 0.0
2017-Feb-17 03:31S 22°53' W 043°12'0 0.0
2017-Feb-17 02:31S 22°53' W 043°12'0 0.0
2017-Feb-17 01:31S 22°53' W 043°12'0 0.0
2017-Feb-17 00:25S 22°53' W 043°13'0 0.0
2017-Feb-16 23:31S 22°53' W 043°13'0 0.0
2017-Feb-16 22:31S 22°53' W 043°13'1 1.2
2017-Feb-16 21:33S 22°53' W 043°11'0 0.3
2017-Feb-16 20:29S 22°53' W 043°11'0 0.0
2017-Feb-16 19:23S 22°53' W 043°11'0 0.0
2017-Feb-16 18:29S 22°53' W 043°11'0 0.0
2017-Feb-16 17:29S 22°53' W 043°11'0 0.0
2017-Feb-16 16:29S 22°53' W 043°11'0 0.0
2017-Feb-16 15:29S 22°53' W 043°11'0 0.0
2017-Feb-16 14:29S 22°53' W 043°11'0 0.0
2017-Feb-16 13:29S 22°53' W 043°11'0 0.1
2017-Feb-16 12:11S 22°53' W 043°11'0 0.0
2017-Feb-16 11:29S 22°53' W 043°11'0 0.0
2017-Feb-16 10:29S 22°53' W 043°11'0 0.0
2017-Feb-16 09:29S 22°53' W 043°11'0 0.1
2017-Feb-16 08:29S 22°53' W 043°11'0 0.1
2017-Feb-16 07:32S 22°53' W 043°11'0 0.0
2017-Feb-16 06:20S 22°53' W 043°11'0 0.0
2017-Feb-16 05:32S 22°53' W 043°11'0 0.0
2017-Feb-16 04:26S 22°53' W 043°11'0 0.0
2017-Feb-16 03:32S 22°53' W 043°11'0 0.0
2017-Feb-16 02:26S 22°53' W 043°11'0 0.0
2017-Feb-16 01:26S 22°53' W 043°11'0 0.0
2017-Feb-16 00:32S 22°53' W 043°11'0 0.1
2017-Feb-15 23:32S 22°53' W 043°11'0 0.1
2017-Feb-15 22:32S 22°53' W 043°11'0 0.1
2017-Feb-15 21:20S 22°53' W 043°11'0 0.0
2017-Feb-15 20:32S 22°53' W 043°11'0 0.0
2017-Feb-15 19:32S 22°53' W 043°11'0 0.0
2017-Feb-15 18:20S 22°53' W 043°11'0 0.0
2017-Feb-15 17:32S 22°53' W 043°11'0 0.0
2017-Feb-15 16:26S 22°53' W 043°11'0 0.0
2017-Feb-15 15:32S 22°53' W 043°11'0 0.1
2017-Feb-15 14:32S 22°53' W 043°11'0 0.0
2017-Feb-15 13:32S 22°53' W 043°11'0 0.1
2017-Feb-15 12:32S 22°53' W 043°11'0 0.0
2017-Feb-15 11:32S 22°53' W 043°11'0 0.0
2017-Feb-15 10:32S 22°53' W 043°11'0 0.0
2017-Feb-15 09:32S 22°53' W 043°11'3 3.5
2017-Feb-15 08:33S 22°56' W 043°09'9 8.9
2017-Feb-15 07:33S 23°04' W 043°05'0 0.3
2017-Feb-15 06:33S 23°04' W 043°05'8 7.9
2017-Feb-15 05:33S 22°57' W 043°08'6 5.8
2017-Feb-15 04:33S 22°53' W 043°12'0 0.0
2017-Feb-15 03:33S 22°53' W 043°12'0 0.0
2017-Feb-15 02:33S 22°53' W 043°12'0 0.0
2017-Feb-15 01:33S 22°53' W 043°12'0 0.0
2017-Feb-15 00:33S 22°53' W 043°12'0 0.0
2017-Feb-14 23:33S 22°53' W 043°12'0 0.0
2017-Feb-14 22:33S 22°53' W 043°12'0 0.0
2017-Feb-14 21:33S 22°53' W 043°12'0 0.0
2017-Feb-14 20:33S 22°53' W 043°12'0 0.0
2017-Feb-14 19:33S 22°53' W 043°12'0 0.2
2017-Feb-14 18:10S 22°53' W 043°13'0 0.0
2017-Feb-14 17:33S 22°53' W 043°13'0 0.3
2017-Feb-14 16:33S 22°53' W 043°12'0 0.0
2017-Feb-14 15:33S 22°53' W 043°12'1 1.3
2017-Feb-14 14:32S 22°53' W 043°11'0 0.0
2017-Feb-14 13:32S 22°53' W 043°11'0 0.1
2017-Feb-14 12:32S 22°53' W 043°11'0 0.0
2017-Feb-14 11:32S 22°53' W 043°11'0 0.0
2017-Feb-14 10:32S 22°53' W 043°11'0 0.0
2017-Feb-14 09:20S 22°53' W 043°11'0 0.0
2017-Feb-14 08:33S 22°53' W 043°11'0 0.1
2017-Feb-14 07:33S 22°53' W 043°11'0 0.0
2017-Feb-14 06:33S 22°53' W 043°11'0 0.0
2017-Feb-14 05:33S 22°53' W 043°11'0 0.0
2017-Feb-14 04:33S 22°53' W 043°11'0 0.0
2017-Feb-14 03:33S 22°53' W 043°11'0 0.0
2017-Feb-14 02:33S 22°53' W 043°11'0 0.0
2017-Feb-14 01:33S 22°53' W 043°11'0 0.0
2017-Feb-14 00:33S 22°53' W 043°11'0 0.0
2017-Feb-13 23:33S 22°53' W 043°11'0 0.0
2017-Feb-13 22:33S 22°53' W 043°11'0 0.0
2017-Feb-13 21:33S 22°53' W 043°11'0 0.1
2017-Feb-13 20:33S 22°53' W 043°11'0 0.0
2017-Feb-13 19:33S 22°53' W 043°11'0 0.0
2017-Feb-13 18:33S 22°53' W 043°11'0 0.0
2017-Feb-13 17:29S 22°53' W 043°11'0 0.1
2017-Feb-13 16:33S 22°53' W 043°11'7 7.2
2017-Feb-13 15:33S 22°59' W 043°07'8 7.8
2017-Feb-13 14:33S 23°07' W 043°04'8 7.6
2017-Feb-13 13:33S 22°60' W 043°07'8 7.8
2017-Feb-13 12:33S 22°53' W 043°11'1 0.8
2017-Feb-13 11:33S 22°53' W 043°12'0 0.3
2017-Feb-13 10:33S 22°53' W 043°12'0 0.0
2017-Feb-13 09:33S 22°53' W 043°12'0 0.0
2017-Feb-13 08:33S 22°53' W 043°13'0 0.0
2017-Feb-13 07:33S 22°53' W 043°13'0 0.0
2017-Feb-13 06:33S 22°53' W 043°13'0 0.1
2017-Feb-13 05:33S 22°53' W 043°13'0 0.0
2017-Feb-13 04:33S 22°53' W 043°13'0 0.0
2017-Feb-13 03:33S 22°53' W 043°13'0 0.0
2017-Feb-13 02:33S 22°53' W 043°13'2 1.5
2017-Feb-13 01:33S 22°53' W 043°11'0 0.0
2017-Feb-13 00:33S 22°53' W 043°11'0 0.0
2017-Feb-12 23:33S 22°53' W 043°11'6 5.8
2017-Feb-12 22:33S 22°58' W 043°08'8 8.2
2017-Feb-12 21:33S 23°06' W 043°05'3 3.5
2017-Feb-12 20:33S 23°02' W 043°06'8 8.0
2017-Feb-12 19:33S 22°55' W 043°09'4 3.9
2017-Feb-12 18:33S 22°53' W 043°13'0 0.0
2017-Feb-12 17:32S 22°53' W 043°13'0 0.0
2017-Feb-12 16:33S 22°53' W 043°13'0 0.2
2017-Feb-12 15:33S 22°53' W 043°13'0 0.0
2017-Feb-12 14:33S 22°53' W 043°13'0 0.3
2017-Feb-12 13:33S 22°53' W 043°13'0 0.0
2017-Feb-12 12:33S 22°53' W 043°13'0 0.0
2017-Feb-12 11:33S 22°53' W 043°13'0 0.0
2017-Feb-12 10:33S 22°53' W 043°13'0 0.0
2017-Feb-12 09:33S 22°53' W 043°13'0 0.0
2017-Feb-12 08:33S 22°53' W 043°13'  

Dump ship's entire track history